Time;durP1;ratioP1;P1;durP2;ratioP2;P2;SDS_P1;SDS_P2;PMS_P1;PMS_P2;Temp;Humidity;BMP_temperature;BMP_pressure;BME280_temperature;BME280_humidity;BME280_pressure;Samples;Min_cycle;Max_cycle;Signal;HPM_P1;HPM_P2
2023/10/21 00:01:18;;;;;;;43.20;28.60;;;;;;;11.26;100.00;97876.71;177401;1268;44848;-79
2023/10/21 00:05:21;;;;;;;41.80;25.50;;;;;;;11.28;100.00;97874.19;177507;1265;57912;-81
2023/10/21 00:09:24;;;;;;;42.50;26.60;;;;;;;11.35;100.00;97901.49;176642;1269;46054;-81
2023/10/21 00:13:27;;;;;;;43.20;26.10;;;;;;;11.38;100.00;97914.45;177031;1265;46189;-80
2023/10/21 00:17:30;;;;;;;36.30;24.50;;;;;;;11.44;100.00;97914.94;178441;1265;46111;-80
2023/10/21 00:21:33;;;;;;;41.20;26.60;;;;;;;11.52;100.00;97922.63;176847;1265;44879;-80
2023/10/21 00:25:36;;;;;;;36.70;26.60;;;;;;;11.58;100.00;97928.13;178723;1267;59250;-80
2023/10/21 00:29:39;;;;;;;36.30;25.80;;;;;;;11.60;100.00;97947.24;177555;1264;44113;-81
2023/10/21 00:33:42;;;;;;;32.70;25.50;;;;;;;11.56;100.00;97960.83;177963;1267;46256;-79
2023/10/21 00:37:45;;;;;;;36.20;26.00;;;;;;;11.58;100.00;97961.11;177608;1267;46018;-81
2023/10/21 00:41:48;;;;;;;38.90;27.90;;;;;;;11.55;100.00;97949.80;177535;1266;46019;-81
2023/10/21 00:45:51;;;;;;;49.90;27.70;;;;;;;11.53;100.00;97935.95;177262;1267;59704;-81
2023/10/21 00:49:54;;;;;;;47.40;25.70;;;;;;;11.43;100.00;97941.14;177546;1267;46220;-80
2023/10/21 00:54:00;;;;;;;31.80;21.80;;;;;;;11.32;100.00;97960.92;177912;1267;46063;-81
2023/10/21 00:58:03;;;;;;;36.00;25.30;;;;;;;11.28;100.00;97969.63;177203;1266;46171;-81
2023/10/21 01:02:06;;;;;;;36.90;26.10;;;;;;;11.28;100.00;97947.96;176974;1265;46111;-80
2023/10/21 01:06:09;;;;;;;40.10;26.00;;;;;;;11.31;100.00;97961.59;177044;1265;64165;-81
2023/10/21 01:10:12;;;;;;;44.20;28.30;;;;;;;11.32;100.00;97997.96;178264;1267;45988;-80
2023/10/21 01:14:17;;;;;;;35.20;25.70;;;;;;;11.34;100.00;97999.29;178675;1265;46082;-81
2023/10/21 01:18:20;;;;;;;45.50;27.40;;;;;;;11.37;100.00;97990.38;177966;1267;46151;-81
2023/10/21 01:22:27;;;;;;;39.70;25.60;;;;;;;11.44;100.00;97999.05;177582;1265;46017;-80
2023/10/21 01:26:30;;;;;;;37.50;27.00;;;;;;;11.51;100.00;98016.31;178759;1267;57251;-81
2023/10/21 01:30:33;;;;;;;41.70;27.60;;;;;;;11.48;100.00;98017.73;177430;1265;46026;-80
2023/10/21 01:34:36;;;;;;;38.40;25.40;;;;;;;11.47;100.00;98016.84;176240;1267;46050;-79
2023/10/21 01:38:39;;;;;;;37.60;25.60;;;;;;;11.48;100.00;98006.02;178340;1266;46003;-81
2023/10/21 01:42:42;;;;;;;43.00;27.80;;;;;;;11.50;100.00;98006.53;177014;1266;46153;-80
2023/10/21 01:46:45;;;;;;;35.30;26.00;;;;;;;11.53;100.00;98004.84;177159;1267;59296;-80
2023/10/21 01:50:48;;;;;;;36.80;26.50;;;;;;;11.50;100.00;97996.58;176959;1267;46151;-80
2023/10/21 01:54:55;;;;;;;41.20;26.50;;;;;;;11.50;100.00;98024.80;177473;1267;47197;-79
2023/10/21 01:58:58;;;;;;;33.10;25.70;;;;;;;11.48;100.00;98012.11;178480;1267;45244;-81
2023/10/21 02:03:02;;;;;;;41.10;27.20;;;;;;;11.49;100.00;97997.45;177774;1265;45984;-80
2023/10/21 02:07:06;;;;;;;35.70;24.60;;;;;;;11.45;100.00;98000.16;178245;1264;248608;-82
2023/10/21 02:11:09;;;;;;;78.10;51.50;;;;;;;11.48;100.00;98012.64;178301;1265;45999;-81
2023/10/21 02:15:14;;;;;;;103.40;80.80;;;;;;;11.52;100.00;98020.59;178869;1264;46134;-82
2023/10/21 02:19:19;;;;;;;45.80;28.80;;;;;;;11.55;100.00;98035.21;177296;1267;46188;-81
2023/10/21 02:23:22;;;;;;;27.70;22.00;;;;;;;11.51;100.00;98052.91;177993;1266;46015;-82
2023/10/21 02:27:25;;;;;;;33.20;22.90;;;;;;;11.48;100.00;98060.60;176962;1268;57925;-81
2023/10/21 02:31:28;;;;;;;35.50;25.20;;;;;;;11.43;100.00;98061.83;178053;1264;44728;-82
2023/10/21 02:35:34;;;;;;;29.30;23.70;;;;;;;11.37;100.00;98055.51;179469;1265;43903;-82
2023/10/21 02:39:37;;;;;;;31.30;23.80;;;;;;;11.31;100.00;98061.21;178562;1265;46186;-82
2023/10/21 02:43:40;;;;;;;41.50;25.50;;;;;;;11.27;100.00;98050.40;178395;1265;45986;-82
2023/10/21 02:47:43;;;;;;;35.00;24.60;;;;;;;11.20;100.00;98051.83;177903;1265;58209;-82
2023/10/21 02:51:49;;;;;;;40.30;27.20;;;;;;;11.19;100.00;98057.92;177985;1265;46361;-82
2023/10/21 02:55:52;;;;;;;33.90;24.60;;;;;;;11.24;100.00;98074.70;178689;1265;44090;-83
2023/10/21 02:59:54;;;;;;;32.60;21.80;;;;;;;11.28;100.00;98077.11;178236;1265;46572;-83
2023/10/21 03:03:57;;;;;;;33.40;23.90;;;;;;;11.24;100.00;98104.86;177263;1265;46011;-83
2023/10/21 03:08:00;;;;;;;32.50;22.80;;;;;;;11.28;100.00;98100.33;177710;1265;59334;-82
2023/10/21 03:12:04;;;;;;;32.30;24.30;;;;;;;11.33;100.00;98082.08;176871;1265;46202;-82
2023/10/21 03:16:13;;;;;;;34.40;23.90;;;;;;;11.34;100.00;98072.71;178428;1265;46149;-83
2023/10/21 03:20:17;;;;;;;36.90;26.20;;;;;;;11.36;100.00;98068.93;177784;1265;46171;-80
2023/10/21 03:24:20;;;;;;;36.40;25.10;;;;;;;11.36;100.00;98072.78;178833;1265;44153;-81
2023/10/21 03:28:23;;;;;;;32.40;24.50;;;;;;;11.35;100.00;98061.95;178194;1266;57195;-83
2023/10/21 03:32:26;;;;;;;35.00;24.00;;;;;;;11.31;100.00;98046.96;178940;1265;44005;-83
2023/10/21 03:36:29;;;;;;;28.50;20.50;;;;;;;11.24;100.00;98045.95;178667;1264;45784;-82
2023/10/21 03:40:33;;;;;;;34.80;25.30;;;;;;;11.20;100.00;98045.81;177954;1264;46093;-82
2023/10/21 03:44:36;;;;;;;36.60;23.30;;;;;;;11.12;100.00;98038.25;178188;1265;46118;-83
2023/10/21 03:48:39;;;;;;;35.70;23.60;;;;;;;11.08;100.00;98046.14;177740;1265;58306;-82
2023/10/21 03:52:42;;;;;;;38.80;25.10;;;;;;;11.06;100.00;98055.98;177650;1265;46035;-82
2023/10/21 03:56:45;;;;;;;58.10;26.80;;;;;;;11.09;100.00;98067.19;177402;1264;45992;-79
2023/10/21 04:00:49;;;;;;;39.40;25.50;;;;;;;11.10;100.00;98084.59;178617;1267;46092;-80
2023/10/21 04:04:52;;;;;;;42.40;23.90;;;;;;;11.11;100.00;98097.19;177513;1265;46049;-80
2023/10/21 04:08:55;;;;;;;31.70;22.90;;;;;;;11.08;100.00;98110.44;178470;1265;58006;-82
2023/10/21 04:12:59;;;;;;;32.60;23.60;;;;;;;10.98;100.00;98114.36;177596;1265;46102;-82
2023/10/21 04:17:03;;;;;;;39.10;24.30;;;;;;;10.92;100.00;98122.40;178770;1264;45944;-82
2023/10/21 04:21:05;;;;;;;40.10;29.70;;;;;;;10.91;100.00;98117.67;178633;1264;46173;-83
2023/10/21 04:25:10;;;;;;;36.40;23.40;;;;;;;10.98;100.00;98119.63;178208;1265;46256;-81
2023/10/21 04:29:15;;;;;;;44.80;25.80;;;;;;;11.02;100.00;98134.18;178085;1265;58444;-82
2023/10/21 04:33:18;;;;;;;36.50;25.10;;;;;;;11.06;100.00;98133.80;178411;1265;45991;-80
2023/10/21 04:37:22;;;;;;;55.10;28.00;;;;;;;11.16;100.00;98141.02;177648;1264;46123;-81
2023/10/21 04:41:25;;;;;;;43.40;22.20;;;;;;;11.26;100.00;98142.60;178334;1265;46569;-82
2023/10/21 04:45:28;;;;;;;37.90;22.10;;;;;;;11.32;100.00;98161.88;178180;1266;45916;-80
2023/10/21 04:49:32;;;;;;;63.60;22.40;;;;;;;11.35;100.00;98185.96;177662;1265;59220;-82
2023/10/21 04:53:37;;;;;;;34.20;20.00;;;;;;;11.34;100.00;98187.16;177161;1265;46126;-83
2023/10/21 04:57:40;;;;;;;33.20;21.90;;;;;;;11.23;100.00;98203.14;178819;1265;46013;-82
2023/10/21 05:01:43;;;;;;;33.60;21.00;;;;;;;11.14;100.00;98211.61;177254;1268;46580;-82
2023/10/21 05:05:46;;;;;;;30.00;21.40;;;;;;;11.16;100.00;98217.44;178109;1266;46149;-82
2023/10/21 05:09:50;;;;;;;25.30;20.50;;;;;;;11.21;100.00;98222.19;177727;1265;57912;-81
2023/10/21 05:13:53;;;;;;;36.30;19.70;;;;;;;11.22;100.00;98221.72;177832;1265;46157;-82
2023/10/21 05:17:56;;;;;;;40.10;20.80;;;;;;;11.27;100.00;98230.02;177297;1265;46119;-82
2023/10/21 05:22:00;;;;;;;27.40;18.90;;;;;;;11.16;100.00;98232.02;177516;1265;45987;-81
2023/10/21 05:26:03;;;;;;;27.30;17.70;;;;;;;11.06;100.00;98246.80;177830;1265;46007;-81
2023/10/21 05:30:07;;;;;;;26.70;18.40;;;;;;;11.09;100.00;98260.67;178409;1264;59274;-82
2023/10/21 05:34:17;;;;;;;19.60;15.20;;;;;;;11.08;100.00;98267.88;178041;1265;46182;-79
2023/10/21 05:38:21;;;;;;;32.50;18.20;;;;;;;10.99;100.00;98261.75;176842;1265;46230;-80
2023/10/21 05:42:23;;;;;;;22.00;16.90;;;;;;;10.98;100.00;98266.68;177056;1264;46010;-79
2023/10/21 05:46:27;;;;;;;30.90;19.80;;;;;;;11.00;100.00;98263.84;178904;1265;46169;-81
2023/10/21 05:50:30;;;;;;;36.00;20.50;;;;;;;11.04;100.00;98272.43;177519;1265;57890;-82
2023/10/21 05:54:33;;;;;;;33.80;18.40;;;;;;;11.00;100.00;98273.36;178991;1265;46123;-80
2023/10/21 05:58:37;;;;;;;39.30;20.70;;;;;;;10.97;100.00;98276.20;179332;1264;45944;-80
2023/10/21 06:02:40;;;;;;;30.00;18.40;;;;;;;10.90;100.00;98280.97;179766;1265;46121;-81
2023/10/21 06:06:49;;;;;;;28.30;19.60;;;;;;;10.85;100.00;98287.52;178962;1265;44401;-81
2023/10/21 06:10:54;;;;;;;33.60;20.10;;;;;;;10.83;100.00;98289.87;177425;1265;59230;-81
2023/10/21 06:14:57;;;;;;;31.40;16.50;;;;;;;10.75;100.00;98291.02;177942;1264;46292;-81
2023/10/21 06:19:00;;;;;;;21.10;16.00;;;;;;;10.64;100.00;98290.55;178605;1266;46026;-81
2023/10/21 06:23:04;;;;;;;28.90;20.00;;;;;;;10.51;100.00;98296.90;178510;1264;46080;-79
2023/10/21 06:27:07;;;;;;;21.40;18.50;;;;;;;10.44;100.00;98311.27;179343;1264;45892;-80
2023/10/21 06:31:11;;;;;;;21.20;18.40;;;;;;;10.43;100.00;98336.51;178014;1264;58204;-81
2023/10/21 06:35:14;;;;;;;38.60;20.00;;;;;;;10.43;100.00;98340.20;177531;1264;46138;-82
2023/10/21 06:39:18;;;;;;;29.90;18.40;;;;;;;10.44;100.00;98351.52;177610;1265;44215;-81
2023/10/21 06:43:22;;;;;;;35.40;18.10;;;;;;;10.44;100.00;98369.98;178804;1265;46023;-81
2023/10/21 06:47:25;;;;;;;40.50;23.00;;;;;;;10.51;100.00;98374.25;177744;1265;46008;-78
2023/10/21 06:51:29;;;;;;;79.00;23.60;;;;;;;10.68;100.00;98375.65;177863;1265;57971;-81
2023/10/21 06:55:44;;;;;;;47.00;23.70;;;;;;;10.82;100.00;98378.64;177675;1265;46250;-80
2023/10/21 06:59:48;;;;;;;55.00;22.40;;;;;;;10.99;100.00;98384.77;177585;1265;46126;-80
2023/10/21 07:03:51;;;;;;;49.20;21.70;;;;;;;11.18;100.00;98387.05;178065;1265;46128;-81
2023/10/21 07:07:55;;;;;;;38.40;18.40;;;;;;;11.36;100.00;98396.54;177011;1269;46195;-81
2023/10/21 07:11:57;;;;;;;27.00;16.60;;;;;;;11.47;100.00;98403.71;177285;1264;59397;-79
2023/10/21 07:16:06;;;;;;;24.90;15.90;;;;;;;11.49;100.00;98414.48;177834;1265;46327;-82
2023/10/21 07:20:11;;;;;;;20.80;17.10;;;;;;;11.29;100.00;98422.30;178096;1264;46013;-81
2023/10/21 07:24:14;;;;;;;24.50;18.00;;;;;;;11.17;100.00;98428.59;176873;1265;45924;-80
2023/10/21 07:28:18;;;;;;;54.30;18.10;;;;;;;11.27;100.00;98435.61;177293;1265;46033;-80
2023/10/21 07:32:22;;;;;;;19.50;16.80;;;;;;;11.34;100.00;98451.55;177398;1265;58203;-81
2023/10/21 07:36:26;;;;;;;23.90;18.30;;;;;;;11.40;100.00;98458.46;178737;1261;46104;-85
2023/10/21 07:40:32;;;;;;;21.80;17.70;;;;;;;11.45;100.00;98466.98;176890;1266;46125;-85
2023/10/21 07:44:37;;;;;;;19.40;16.80;;;;;;;11.52;100.00;98469.13;176356;1269;45998;-85
2023/10/21 07:48:42;;;;;;;29.70;22.10;;;;;;;11.55;100.00;98468.88;176444;1267;46096;-85
2023/10/21 07:52:45;;;;;;;23.50;19.40;;;;;;;11.73;100.00;98467.09;176630;1266;58160;-85
2023/10/21 07:56:50;;;;;;;26.80;21.80;;;;;;;12.00;100.00;98478.09;176730;1265;45985;-85
2023/10/21 08:00:57;;;;;;;60.20;43.90;;;;;;;12.32;100.00;98490.38;176446;1265;46226;-85
2023/10/21 08:05:01;;;;;;;29.00;24.80;;;;;;;12.62;100.00;98497.22;176498;1265;45985;-85
2023/10/21 08:09:05;;;;;;;35.40;29.00;;;;;;;12.89;100.00;98500.02;177269;1265;45994;-84
2023/10/21 08:13:09;;;;;;;31.00;26.80;;;;;;;13.14;100.00;98501.02;176619;1264;57978;-85
2023/10/21 08:17:41;;;;;;;36.80;26.40;;;;;;;13.33;100.00;98506.77;176419;1268;46209;-84
2023/10/21 08:21:45;;;;;;;35.00;26.00;;;;;;;13.49;100.00;98513.73;176797;1265;46133;-85
2023/10/21 08:26:14;;;;;;;28.00;23.50;;;;;;;13.73;100.00;98521.16;178178;1267;46092;-85
2023/10/21 08:30:17;;;;;;;38.20;27.20;;;;;;;13.88;100.00;98528.02;176704;1265;46115;-85
2023/10/21 08:34:20;;;;;;;30.80;25.00;;;;;;;14.06;100.00;98523.08;176792;1264;59283;-85
2023/10/21 08:38:24;;;;;;;34.70;25.70;;;;;;;14.23;100.00;98527.42;176766;1265;46014;-85
2023/10/21 08:42:27;;;;;;;34.00;25.00;;;;;;;14.34;100.00;98532.09;176993;1265;46082;-86
2023/10/21 08:46:56;;;;;;;37.10;29.20;;;;;;;14.51;100.00;98540.69;177116;1265;46037;-86
2023/10/21 08:51:07;;;;;;;36.50;28.00;;;;;;;14.69;100.00;98542.52;176696;1269;46075;-85
2023/10/21 08:55:12;;;;;;;35.80;27.90;;;;;;;14.80;100.00;98542.48;176645;1265;58255;-86
2023/10/21 08:59:15;;;;;;;27.00;23.30;;;;;;;14.97;100.00;98554.94;176776;1266;46107;-86
2023/10/21 09:03:19;;;;;;;30.80;25.50;;;;;;;15.21;100.00;98563.51;176591;1265;45875;-86
2023/10/21 09:07:23;;;;;;;30.00;22.60;;;;;;;15.45;100.00;98566.13;176992;1267;46108;-85
2023/10/21 09:11:29;;;;;;;32.10;25.80;;;;;;;15.71;100.00;98566.52;176857;1267;45939;-85
2023/10/21 09:15:38;;;;;;;30.70;26.20;;;;;;;15.98;100.00;98562.90;177292;1269;58314;-86
2023/10/21 09:19:42;;;;;;;33.60;25.40;;;;;;;16.23;100.00;98563.72;177414;1266;46077;-86
2023/10/21 09:23:50;;;;;;;31.10;27.20;;;;;;;16.49;100.00;98561.83;177006;1265;45950;-86
2023/10/21 09:27:57;;;;;;;27.10;21.50;;;;;;;16.78;100.00;98565.11;176957;1265;46019;-86
2023/10/21 09:32:01;;;;;;;33.90;25.50;;;;;;;17.05;100.00;98568.89;176972;1265;46153;-86
2023/10/21 09:36:07;;;;;;;29.70;23.10;;;;;;;17.34;100.00;98568.11;176728;1266;60025;-86
2023/10/21 09:40:25;;;;;;;34.00;24.60;;;;;;;17.69;100.00;98583.23;176755;1264;46204;-86
2023/10/21 09:44:35;;;;;;;33.80;26.40;;;;;;;17.97;100.00;98582.73;176306;1265;46096;-86
2023/10/21 09:48:43;;;;;;;32.60;21.80;;;;;;;18.20;100.00;98581.39;176685;1265;46099;-86
2023/10/21 09:53:06;;;;;;;27.90;22.10;;;;;;;18.40;100.00;98583.98;177029;1265;45870;-86
2023/10/21 09:57:12;;;;;;;26.70;23.00;;;;;;;18.68;100.00;98587.83;177003;1265;58413;-86
2023/10/21 10:01:23;;;;;;;27.20;22.60;;;;;;;18.93;100.00;98591.04;177029;1265;46134;-85
2023/10/21 10:05:27;;;;;;;29.70;22.10;;;;;;;19.15;100.00;98596.11;176528;1265;44324;-86
2023/10/21 10:09:36;;;;;;;36.20;23.60;;;;;;;19.35;100.00;98600.98;177624;1267;44061;-85
2023/10/21 10:13:46;;;;;;;31.80;22.50;;;;;;;19.59;100.00;98609.88;176896;1265;46228;-85
2023/10/21 10:17:50;;;;;;;24.50;20.20;;;;;;;19.81;100.00;98608.79;177045;1265;60308;-86
2023/10/21 10:21:53;;;;;;;21.40;19.00;;;;;;;20.04;100.00;98608.09;176723;1265;46077;-85
2023/10/21 10:25:57;;;;;;;25.40;21.80;;;;;;;20.25;100.00;98619.53;176686;1265;46106;-86
2023/10/21 10:30:01;;;;;;;24.20;20.00;;;;;;;20.36;100.00;98629.27;176744;1265;46067;-86
2023/10/21 10:34:08;;;;;;;23.30;19.30;;;;;;;20.40;100.00;98628.42;176757;1264;46011;-86
2023/10/21 10:38:20;;;;;;;24.40;21.30;;;;;;;20.51;100.00;98617.58;177102;1269;59626;-85
2023/10/21 10:42:31;;;;;;;22.60;18.00;;;;;;;20.66;100.00;98616.55;176943;1265;46295;-85
2023/10/21 10:46:36;;;;;;;21.90;19.00;;;;;;;20.78;100.00;98620.32;176953;1265;45970;-85
2023/10/21 10:50:39;;;;;;;20.80;17.30;;;;;;;20.90;100.00;98621.70;177292;1265;45940;-85
2023/10/21 10:54:43;;;;;;;16.90;14.20;;;;;;;20.95;100.00;98629.18;177977;1265;46164;-86
2023/10/21 10:58:46;;;;;;;16.50;13.30;;;;;;;20.96;100.00;98635.29;176915;1265;57938;-85
2023/10/21 11:02:49;;;;;;;11.30;10.10;;;;;;;21.11;100.00;98630.66;177113;1265;44658;-86
2023/10/21 11:06:53;;;;;;;13.10;11.60;;;;;;;21.17;100.00;98639.34;176801;1264;45982;-85
2023/10/21 11:11:16;;;;;;;12.10;10.30;;;;;;;21.22;100.00;98637.36;177253;1265;46075;-86
2023/10/21 11:15:20;;;;;;;12.20;8.70;;;;;;;21.30;100.00;98630.36;176710;1265;46202;-87
2023/10/21 11:19:23;;;;;;;6.50;5.90;;;;;;;21.41;100.00;98637.48;176952;1266;59498;-85
2023/10/21 11:23:28;;;;;;;8.80;6.80;;;;;;;21.55;100.00;98650.71;177866;1265;85841;-76
2023/10/21 11:27:38;;;;;;;7.00;5.30;;;;;;;21.73;100.00;98649.98;179560;1266;46108;-76
2023/10/21 11:31:43;;;;;;;7.10;4.00;;;;;;;21.83;100.00;98647.37;178138;1260;46116;-86
2023/10/21 11:35:47;;;;;;;5.30;3.80;;;;;;;21.96;100.00;98649.89;176760;1262;44708;-85
2023/10/21 11:40:15;;;;;;;3.80;3.10;;;;;;;22.06;100.00;98650.67;177673;1262;57977;-85
2023/10/21 11:44:32;;;;;;;3.30;2.60;;;;;;;22.02;93.19;98658.34;177158;1262;46151;-85
2023/10/21 11:48:37;;;;;;;6.00;3.40;;;;;;;22.00;96.31;98666.35;177453;1262;46022;-85
2023/10/21 11:52:44;;;;;;;3.00;2.70;;;;;;;22.01;95.13;98671.52;177129;1262;45774;-85
2023/10/21 11:57:25;;;;;;;2.80;2.50;;;;;;;22.07;97.32;98673.86;177175;1266;46100;-85
2023/10/21 12:28:13;;;;;;;4.10;3.30;;;;;;;22.48;95.89;98706.91;177156;1266;44964;-86
2023/10/21 12:36:34;;;;;;;2.80;2.20;;;;;;;22.50;90.38;98715.59;178284;1262;88580;-76
2023/10/21 12:40:38;;;;;;;3.20;2.50;;;;;;;22.49;90.31;98727.81;180004;1263;46792;-76
2023/10/21 12:44:47;;;;;;;3.30;2.40;;;;;;;22.47;89.70;98738.53;179422;1263;58945;-76
2023/10/21 12:48:55;;;;;;;2.30;2.10;;;;;;;22.49;89.38;98740.07;179430;1262;45273;-76
2023/10/21 12:53:12;;;;;;;2.90;2.40;;;;;;;22.50;88.91;98748.47;179832;1261;43912;-86
2023/10/21 12:57:16;;;;;;;2.30;1.80;;;;;;;22.51;87.91;98756.77;177445;1262;46002;-85
2023/10/21 13:01:39;;;;;;;3.60;2.00;;;;;;;22.42;85.40;98763.30;177550;1262;46068;-85
2023/10/21 13:05:46;;;;;;;3.30;2.40;;;;;;;22.38;86.38;98762.09;177573;1262;59229;-85
2023/10/21 13:09:50;;;;;;;2.70;2.20;;;;;;;22.45;88.42;98760.55;178038;1262;46161;-84
2023/10/21 13:13:54;;;;;;;2.30;2.10;;;;;;;22.51;88.49;98764.33;177298;1266;46419;-85
2023/10/21 13:18:03;;;;;;;3.30;1.70;;;;;;;22.57;86.67;98771.36;177274;1266;46118;-85
2023/10/21 13:22:07;;;;;;;2.50;2.20;;;;;;;22.56;80.62;98778.02;176929;1266;46116;-84
2023/10/21 13:26:13;;;;;;;2.10;1.10;;;;;;;22.59;82.34;98782.24;177262;1264;58270;-85
2023/10/21 13:30:16;;;;;;;1.60;1.10;;;;;;;22.63;81.76;98777.40;177470;1262;45994;-85
2023/10/21 13:34:20;;;;;;;1.90;1.50;;;;;;;22.68;79.64;98779.76;177466;1265;44495;-86
2023/10/21 13:38:23;;;;;;;2.40;1.90;;;;;;;22.75;79.29;98782.36;176885;1263;46223;-85
2023/10/21 13:42:26;;;;;;;2.10;1.50;;;;;;;22.76;78.71;98786.38;177023;1266;46161;-85
2023/10/21 13:46:29;;;;;;;2.30;1.80;;;;;;;22.74;79.45;98780.13;177354;1262;58226;-85
2023/10/21 13:50:33;;;;;;;3.10;2.30;;;;;;;22.75;80.29;98793.07;177509;1262;45986;-85
2023/10/21 13:54:37;;;;;;;2.40;1.70;;;;;;;22.77;79.12;98796.11;176845;1265;45982;-85
2023/10/21 13:58:41;;;;;;;1.50;1.40;;;;;;;22.77;79.91;98795.58;178241;1264;45980;-84
2023/10/21 14:07:31;;;;;;;2.00;1.80;;;;;;;22.69;77.90;98791.62;176399;1264;273852;-76
2023/10/21 14:11:36;;;;;;;2.10;1.30;;;;;;;22.60;78.33;98796.02;179207;1264;46121;-76
2023/10/21 14:15:40;;;;;;;4.20;2.00;;;;;;;22.52;78.24;98798.73;179210;1265;45955;-76
2023/10/21 14:19:43;;;;;;;1.40;1.30;;;;;;;22.46;82.18;98799.63;179299;1264;44268;-76
2023/10/21 14:33:04;;;;;;;2.20;1.90;;;;;;;22.28;88.43;98831.99;141966;1289;46254;-62
2023/10/21 14:37:08;;;;;;;1.40;1.20;;;;;;;22.21;86.30;98834.50;179221;1265;45971;-77
2023/10/21 14:41:12;;;;;;;1.60;1.30;;;;;;;22.10;85.62;98836.80;179130;1265;44813;-77
2023/10/21 14:45:16;;;;;;;3.10;1.70;;;;;;;21.93;87.13;98839.52;179210;1265;46078;-77
2023/10/21 14:49:19;;;;;;;1.60;1.20;;;;;;;21.79;89.73;98839.80;179006;1268;58386;-77
2023/10/21 14:53:25;;;;;;;1.70;1.50;;;;;;;21.66;87.37;98848.90;179481;1265;44670;-77
2023/10/21 14:57:29;;;;;;;2.50;1.30;;;;;;;21.51;87.26;98851.34;179108;1265;45856;-78
2023/10/21 15:01:32;;;;;;;1.70;1.20;;;;;;;21.34;88.17;98850.66;178811;1266;45405;-77
2023/10/21 15:05:35;;;;;;;2.20;1.40;;;;;;;21.18;88.56;98854.63;179306;1265;44840;-77
2023/10/21 15:09:39;;;;;;;8.30;6.70;;;;;;;21.01;87.54;98861.11;178917;1266;58510;-77
2023/10/21 15:13:43;;;;;;;4.30;3.10;;;;;;;20.80;88.31;98867.49;178937;1265;45994;-77
2023/10/21 15:17:48;;;;;;;2.50;1.80;;;;;;;20.67;89.93;98866.80;179178;1265;45923;-77
2023/10/21 15:21:51;;;;;;;4.00;2.60;;;;;;;20.55;91.40;98872.48;178988;1268;46660;-77
2023/10/21 15:25:55;;;;;;;2.60;2.30;;;;;;;20.46;94.19;98877.81;178713;1265;44598;-77
2023/10/21 15:29:59;;;;;;;3.10;2.30;;;;;;;20.31;93.47;98882.14;178757;1266;57931;-78
2023/10/21 15:34:03;;;;;;;4.10;2.30;;;;;;;20.19;92.03;98880.69;180042;1265;44146;-77
2023/10/21 15:38:07;;;;;;;2.70;2.40;;;;;;;20.10;91.86;98884.27;179029;1266;44568;-77
2023/10/21 15:42:10;;;;;;;3.20;2.70;;;;;;;19.99;92.29;98883.37;179082;1265;44949;-77
2023/10/21 15:46:13;;;;;;;9.80;2.40;;;;;;;19.87;92.44;98881.09;179747;1265;44778;-77
2023/10/21 15:50:17;;;;;;;3.10;2.10;;;;;;;19.69;92.77;98879.95;178726;1265;58404;-77
2023/10/21 15:54:20;;;;;;;8.00;7.30;;;;;;;19.46;92.59;98879.29;178868;1265;46074;-77
2023/10/21 15:58:23;;;;;;;3.50;2.30;;;;;;;19.28;93.19;98892.06;178602;1265;44842;-77
2023/10/21 16:02:27;;;;;;;5.30;3.00;;;;;;;19.11;96.17;98899.73;178333;1268;45954;-77
2023/10/21 16:06:31;;;;;;;3.80;2.70;;;;;;;18.92;97.54;98909.82;178898;1268;44689;-77
2023/10/21 16:10:34;;;;;;;3.80;2.30;;;;;;;18.75;97.97;98923.06;178714;1265;57935;-77
2023/10/21 16:14:37;;;;;;;3.20;2.80;;;;;;;18.62;97.90;98947.80;178524;1268;45990;-77
2023/10/21 16:18:41;;;;;;;150.50;92.00;;;;;;;18.49;98.58;98963.44;178011;1264;46144;-77
2023/10/21 16:22:46;;;;;;;30.80;26.50;;;;;;;18.20;100.00;98972.83;178260;1266;46133;-77
2023/10/21 16:26:51;;;;;;;12.40;8.80;;;;;;;17.94;100.00;98974.35;179672;1265;45927;-77
2023/10/21 16:30:54;;;;;;;10.00;9.00;;;;;;;17.87;100.00;98971.89;179668;1265;57937;-77
2023/10/21 16:34:58;;;;;;;10.20;8.50;;;;;;;17.78;100.00;98980.94;179838;1265;44063;-77
2023/10/21 16:39:02;;;;;;;13.80;12.30;;;;;;;17.68;100.00;98985.98;179280;1266;45999;-77
2023/10/21 16:43:05;;;;;;;22.50;18.60;;;;;;;17.62;100.00;98992.39;178735;1264;45977;-77
2023/10/21 16:47:09;;;;;;;21.50;14.80;;;;;;;17.54;100.00;99002.58;178286;1268;45920;-76
2023/10/21 16:51:14;;;;;;;19.00;15.70;;;;;;;17.45;100.00;99012.86;177836;1265;65428;-77
2023/10/21 16:55:17;;;;;;;18.50;15.20;;;;;;;17.41;100.00;99018.25;177716;1266;46311;-76
2023/10/21 16:59:20;;;;;;;17.00;14.60;;;;;;;17.38;100.00;99024.16;178626;1266;46055;-77
2023/10/21 17:03:23;;;;;;;18.00;13.30;;;;;;;17.34;100.00;99035.77;178649;1265;45997;-77
2023/10/21 17:07:28;;;;;;;19.60;13.80;;;;;;;17.20;100.00;99033.46;178746;1265;46017;-77
2023/10/21 17:11:32;;;;;;;17.60;15.60;;;;;;;17.05;100.00;99041.26;178580;1265;58238;-77
2023/10/21 17:15:34;;;;;;;12.20;8.60;;;;;;;16.97;100.00;99039.84;178851;1264;44137;-77
2023/10/21 17:19:38;;;;;;;13.50;9.00;;;;;;;16.91;100.00;99033.17;179274;1269;46044;-77
2023/10/21 17:23:40;;;;;;;10.70;7.60;;;;;;;16.81;100.00;99030.36;178710;1269;46020;-77
2023/10/21 17:27:43;;;;;;;9.60;6.20;;;;;;;16.78;100.00;99029.87;178793;1265;44005;-76
2023/10/21 17:31:46;;;;;;;10.30;7.80;;;;;;;16.85;100.00;99033.05;178196;1264;58947;-77
2023/10/21 17:35:49;;;;;;;11.20;8.00;;;;;;;16.94;100.00;99036.25;178870;1268;46093;-77
2023/10/21 17:39:52;;;;;;;9.00;6.40;;;;;;;16.98;100.00;99038.06;177591;1266;46086;-77
2023/10/21 17:43:56;;;;;;;9.50;6.40;;;;;;;17.02;100.00;99038.67;179055;1265;44871;-77
2023/10/21 17:47:59;;;;;;;10.50;7.80;;;;;;;17.03;100.00;99035.16;179447;1266;46028;-77
2023/10/21 17:52:03;;;;;;;8.10;7.30;;;;;;;17.06;100.00;99042.08;177205;1264;58309;-77
2023/10/21 17:56:06;;;;;;;10.70;8.00;;;;;;;17.09;100.00;99045.58;178331;1264;45853;-77
2023/10/21 18:00:10;;;;;;;14.60;11.80;;;;;;;17.10;100.00;99041.79;178680;1265;45988;-77
2023/10/21 18:04:14;;;;;;;21.00;15.00;;;;;;;17.10;100.00;99049.80;178895;1267;46093;-76
2023/10/21 18:08:23;;;;;;;17.00;10.40;;;;;;;17.13;100.00;99048.41;178534;1269;46116;-76
2023/10/21 18:12:26;;;;;;;27.60;15.10;;;;;;;17.05;100.00;99050.70;178479;1269;58056;-76
2023/10/21 18:16:29;;;;;;;17.00;14.00;;;;;;;16.97;100.00;99055.52;177992;1265;45887;-77
2023/10/21 18:20:32;;;;;;;15.50;12.10;;;;;;;16.94;100.00;99065.25;177574;1269;44282;-77
2023/10/21 18:24:37;;;;;;;17.70;14.30;;;;;;;16.93;100.00;99063.80;178518;1265;45848;-77
2023/10/21 18:28:40;;;;;;;15.20;12.10;;;;;;;16.89;100.00;99071.63;177755;1267;45997;-77
2023/10/21 18:32:43;;;;;;;13.40;12.10;;;;;;;16.85;100.00;99086.92;179090;1267;59541;-76
2023/10/21 18:36:46;;;;;;;66.30;50.00;;;;;;;16.68;100.00;99098.75;177507;1267;46279;-76
2023/10/21 18:40:50;;;;;;;70.60;60.30;;;;;;;16.62;100.00;99104.27;178111;1266;45937;-76
2023/10/21 18:44:53;;;;;;;54.90;44.70;;;;;;;16.69;100.00;99108.51;178612;1264;45993;-77
2023/10/21 18:48:56;;;;;;;55.30;45.90;;;;;;;16.75;100.00;99118.67;178415;1266;44085;-76
2023/10/21 18:53:01;;;;;;;74.30;63.10;;;;;;;16.74;100.00;99121.73;176756;1269;57865;-76
2023/10/21 18:57:04;;;;;;;54.60;45.30;;;;;;;16.75;100.00;99127.23;178132;1264;46053;-77
2023/10/21 19:01:07;;;;;;;26.90;19.60;;;;;;;16.53;100.00;99132.88;179835;1266;46137;-77
2023/10/21 19:05:10;;;;;;;24.20;18.50;;;;;;;16.33;100.00;99136.53;177700;1267;46082;-77
2023/10/21 19:09:13;;;;;;;16.80;13.70;;;;;;;16.08;100.00;99136.36;179692;1265;44373;-77
2023/10/21 19:13:17;;;;;;;15.70;13.40;;;;;;;16.01;100.00;99139.45;180571;1267;58242;-77